sensor_id;sensor_type;location;lat;lon;timestamp;noise_LAeq;noise_LA_min;noise_LA_max;noise_LA01;noise_LA95
72276;Laerm;61204;49.980;8.358;2023-02-01T00:00:05;52.62;42.30;71.60;;
72276;Laerm;61204;49.980;8.358;2023-02-01T00:02:31;51.52;43.00;64.23;;
72276;Laerm;61204;49.980;8.358;2023-02-01T00:05:01;51.56;44.46;64.82;;
72276;Laerm;61204;49.980;8.358;2023-02-01T00:07:26;54.50;46.13;72.26;;
72276;Laerm;61204;49.980;8.358;2023-02-01T00:09:54;56.02;46.52;74.49;;
72276;Laerm;61204;49.980;8.358;2023-02-01T00:12:19;55.96;45.74;71.42;;
72276;Laerm;61204;49.980;8.358;2023-02-01T00:14:46;56.29;46.27;71.63;;
72276;Laerm;61204;49.980;8.358;2023-02-01T00:17:11;54.21;44.06;72.37;;
72276;Laerm;61204;49.980;8.358;2023-02-01T00:19:36;54.65;45.91;71.83;;
72276;Laerm;61204;49.980;8.358;2023-02-01T00:22:02;54.09;45.29;67.38;;
72276;Laerm;61204;49.980;8.358;2023-02-01T00:24:27;52.92;44.63;66.33;;
72276;Laerm;61204;49.980;8.358;2023-02-01T00:26:53;52.64;46.37;64.88;;
72276;Laerm;61204;49.980;8.358;2023-02-01T00:29:19;54.13;47.25;71.77;;
72276;Laerm;61204;49.980;8.358;2023-02-01T00:31:46;51.78;44.69;64.68;;
72276;Laerm;61204;49.980;8.358;2023-02-01T00:34:14;51.46;45.30;64.78;;
72276;Laerm;61204;49.980;8.358;2023-02-01T00:36:41;51.85;46.64;65.11;;
72276;Laerm;61204;49.980;8.358;2023-02-01T00:39:08;53.67;48.73;62.41;;
72276;Laerm;61204;49.980;8.358;2023-02-01T00:41:34;53.98;45.39;67.82;;
72276;Laerm;61204;49.980;8.358;2023-02-01T00:43:59;52.14;44.20;64.04;;
72276;Laerm;61204;49.980;8.358;2023-02-01T00:46:27;52.94;44.91;74.32;;
72276;Laerm;61204;49.980;8.358;2023-02-01T00:48:52;50.95;44.66;66.59;;
72276;Laerm;61204;49.980;8.358;2023-02-01T00:51:25;51.21;43.29;60.63;;
72276;Laerm;61204;49.980;8.358;2023-02-01T00:53:51;50.33;42.62;62.01;;
72276;Laerm;61204;49.980;8.358;2023-02-01T00:56:17;52.31;46.53;60.72;;
72276;Laerm;61204;49.980;8.358;2023-02-01T00:58:43;49.82;43.78;59.14;;
72276;Laerm;61204;49.980;8.358;2023-02-01T01:01:17;51.03;44.82;57.69;;
72276;Laerm;61204;49.980;8.358;2023-02-01T01:03:53;53.00;45.33;72.15;;
72276;Laerm;61204;49.980;8.358;2023-02-01T01:06:26;53.19;46.02;70.45;;
72276;Laerm;61204;49.980;8.358;2023-02-01T01:08:54;52.25;44.55;69.11;;
72276;Laerm;61204;49.980;8.358;2023-02-01T01:11:25;53.17;43.81;70.88;;
72276;Laerm;61204;49.980;8.358;2023-02-01T01:13:53;51.80;44.32;67.64;;
72276;Laerm;61204;49.980;8.358;2023-02-01T01:16:21;51.21;44.81;75.16;;
72276;Laerm;61204;49.980;8.358;2023-02-01T01:18:48;50.61;43.96;64.59;;
72276;Laerm;61204;49.980;8.358;2023-02-01T01:21:15;53.46;45.65;70.70;;
72276;Laerm;61204;49.980;8.358;2023-02-01T01:23:42;57.30;46.04;72.74;;
72276;Laerm;61204;49.980;8.358;2023-02-01T01:26:17;55.23;45.67;70.85;;
72276;Laerm;61204;49.980;8.358;2023-02-01T01:28:43;51.37;44.42;66.01;;
72276;Laerm;61204;49.980;8.358;2023-02-01T01:31:14;52.45;45.58;64.66;;
72276;Laerm;61204;49.980;8.358;2023-02-01T01:33:40;52.67;45.65;64.97;;
72276;Laerm;61204;49.980;8.358;2023-02-01T01:36:07;53.83;45.10;68.71;;
72276;Laerm;61204;49.980;8.358;2023-02-01T01:38:35;55.93;44.40;76.29;;
72276;Laerm;61204;49.980;8.358;2023-02-01T01:41:00;53.53;44.26;67.79;;
72276;Laerm;61204;49.980;8.358;2023-02-01T01:46:17;53.62;44.98;68.99;;
72276;Laerm;61204;49.980;8.358;2023-02-01T01:48:43;52.80;42.23;70.03;;
72276;Laerm;61204;49.980;8.358;2023-02-01T01:51:12;54.69;44.43;68.69;;
72276;Laerm;61204;49.980;8.358;2023-02-01T01:54:18;53.89;47.44;69.41;;
72276;Laerm;61204;49.980;8.358;2023-02-01T01:56:46;56.71;45.67;75.29;;
72276;Laerm;61204;49.980;8.358;2023-02-01T01:59:16;55.28;46.28;73.58;;
72276;Laerm;61204;49.980;8.358;2023-02-01T02:01:43;56.91;48.86;74.91;;
72276;Laerm;61204;49.980;8.358;2023-02-01T02:04:09;53.98;47.24;70.71;;
72276;Laerm;61204;49.980;8.358;2023-02-01T02:07:02;54.03;45.74;72.86;;
72276;Laerm;61204;49.980;8.358;2023-02-01T02:09:29;53.73;47.57;72.50;;
72276;Laerm;61204;49.980;8.358;2023-02-01T02:11:54;54.33;47.77;79.89;;
72276;Laerm;61204;49.980;8.358;2023-02-01T02:14:23;55.27;47.96;72.15;;
72276;Laerm;61204;49.980;8.358;2023-02-01T02:29:14;55.60;48.01;77.83;;
72276;Laerm;61204;49.980;8.358;2023-02-01T02:43:25;53.08;47.47;66.90;;
72276;Laerm;61204;49.980;8.358;2023-02-01T02:46:41;50.99;44.72;65.75;;
72276;Laerm;61204;49.980;8.358;2023-02-01T02:49:52;51.47;45.30;74.82;;
72276;Laerm;61204;49.980;8.358;2023-02-01T02:52:50;51.92;44.99;70.85;;
72276;Laerm;61204;49.980;8.358;2023-02-01T02:55:37;52.00;44.25;60.60;;
72276;Laerm;61204;49.980;8.358;2023-02-01T02:58:07;52.62;46.24;62.26;;
72276;Laerm;61204;49.980;8.358;2023-02-01T03:00:56;52.55;46.25;64.94;;
72276;Laerm;61204;49.980;8.358;2023-02-01T03:03:41;54.29;47.47;67.69;;
72276;Laerm;61204;49.980;8.358;2023-02-01T03:06:26;52.09;45.98;72.19;;
72276;Laerm;61204;49.980;8.358;2023-02-01T03:08:56;51.99;46.18;67.31;;
72276;Laerm;61204;49.980;8.358;2023-02-01T03:11:24;53.15;47.17;62.29;;
72276;Laerm;61204;49.980;8.358;2023-02-01T03:14:11;51.14;44.05;62.88;;
72276;Laerm;61204;49.980;8.358;2023-02-01T03:16:55;51.27;44.77;61.80;;
72276;Laerm;61204;49.980;8.358;2023-02-01T03:19:34;51.37;44.99;62.66;;
72276;Laerm;61204;49.980;8.358;2023-02-01T03:22:11;53.96;44.86;67.58;;
72276;Laerm;61204;49.980;8.358;2023-02-01T03:24:51;51.25;46.13;60.87;;
72276;Laerm;61204;49.980;8.358;2023-02-01T03:27:22;52.37;46.82;60.19;;
72276;Laerm;61204;49.980;8.358;2023-02-01T03:33:15;54.55;45.35;68.67;;
72276;Laerm;61204;49.980;8.358;2023-02-01T03:36:20;54.85;47.99;69.99;;
72276;Laerm;61204;49.980;8.358;2023-02-01T03:39:09;54.84;48.40;67.96;;
72276;Laerm;61204;49.980;8.358;2023-02-01T03:41:40;53.87;45.83;62.86;;
72276;Laerm;61204;49.980;8.358;2023-02-01T03:44:16;52.30;46.52;68.54;;
72276;Laerm;61204;49.980;8.358;2023-02-01T03:47:01;53.75;48.15;59.75;;
72276;Laerm;61204;49.980;8.358;2023-02-01T03:49:37;55.39;50.23;65.13;;
72276;Laerm;61204;49.980;8.358;2023-02-01T03:52:10;56.04;47.47;69.00;;
72276;Laerm;61204;49.980;8.358;2023-02-01T03:54:43;54.63;47.21;63.84;;
72276;Laerm;61204;49.980;8.358;2023-02-01T03:57:14;54.94;48.97;62.48;;
72276;Laerm;61204;49.980;8.358;2023-02-01T03:59:44;54.24;47.87;61.68;;
72276;Laerm;61204;49.980;8.358;2023-02-01T04:02:10;55.60;50.71;63.19;;
72276;Laerm;61204;49.980;8.358;2023-02-01T04:04:36;55.69;49.62;68.53;;
72276;Laerm;61204;49.980;8.358;2023-02-01T04:07:02;55.34;50.32;66.09;;
72276;Laerm;61204;49.980;8.358;2023-02-01T04:09:27;55.65;49.73;63.78;;
72276;Laerm;61204;49.980;8.358;2023-02-01T04:11:55;55.64;51.67;63.82;;
72276;Laerm;61204;49.980;8.358;2023-02-01T04:14:21;54.81;49.84;66.15;;
72276;Laerm;61204;49.980;8.358;2023-02-01T04:16:46;57.04;51.12;71.24;;
72276;Laerm;61204;49.980;8.358;2023-02-01T04:19:14;56.53;51.46;68.21;;
72276;Laerm;61204;49.980;8.358;2023-02-01T04:21:40;56.72;50.27;71.70;;
72276;Laerm;61204;49.980;8.358;2023-02-01T04:24:16;57.26;51.30;72.47;;
72276;Laerm;61204;49.980;8.358;2023-02-01T04:26:41;56.89;52.36;65.86;;
72276;Laerm;61204;49.980;8.358;2023-02-01T04:29:09;56.17;51.88;62.60;;
72276;Laerm;61204;49.980;8.358;2023-02-01T04:31:35;56.38;50.91;63.09;;
72276;Laerm;61204;49.980;8.358;2023-02-01T04:34:01;58.16;51.73;65.82;;
72276;Laerm;61204;49.980;8.358;2023-02-01T04:36:27;58.44;51.47;69.75;;
72276;Laerm;61204;49.980;8.358;2023-02-01T04:38:52;58.87;52.38;73.17;;
72276;Laerm;61204;49.980;8.358;2023-02-01T04:41:19;57.79;53.70;66.67;;
72276;Laerm;61204;49.980;8.358;2023-02-01T04:43:50;57.27;51.80;68.97;;
72276;Laerm;61204;49.980;8.358;2023-02-01T04:46:16;56.04;50.86;65.51;;
72276;Laerm;61204;49.980;8.358;2023-02-01T04:48:42;56.49;51.77;67.93;;
72276;Laerm;61204;49.980;8.358;2023-02-01T04:51:08;57.80;51.61;73.29;;
72276;Laerm;61204;49.980;8.358;2023-02-01T04:53:34;56.37;52.55;67.93;;
72276;Laerm;61204;49.980;8.358;2023-02-01T04:55:59;56.68;51.21;68.94;;
72276;Laerm;61204;49.980;8.358;2023-02-01T04:58:25;56.70;51.09;71.24;;
72276;Laerm;61204;49.980;8.358;2023-02-01T05:00:50;56.34;52.01;64.85;;
72276;Laerm;61204;49.980;8.358;2023-02-01T05:03:19;57.50;52.87;67.61;;
72276;Laerm;61204;49.980;8.358;2023-02-01T05:05:48;57.41;52.48;65.97;;
72276;Laerm;61204;49.980;8.358;2023-02-01T05:08:14;56.11;51.44;65.43;;
72276;Laerm;61204;49.980;8.358;2023-02-01T05:10:39;58.41;53.08;73.89;;
72276;Laerm;61204;49.980;8.358;2023-02-01T05:13:05;58.51;53.69;72.15;;
72276;Laerm;61204;49.980;8.358;2023-02-01T05:15:50;57.82;52.16;64.18;;
72276;Laerm;61204;49.980;8.358;2023-02-01T05:18:18;58.68;54.05;70.07;;
72276;Laerm;61204;49.980;8.358;2023-02-01T05:20:44;58.21;52.07;73.48;;
72276;Laerm;61204;49.980;8.358;2023-02-01T05:23:09;58.56;52.93;72.48;;
72276;Laerm;61204;49.980;8.358;2023-02-01T05:25:35;57.67;53.14;67.53;;
72276;Laerm;61204;49.980;8.358;2023-02-01T05:28:00;58.41;51.92;75.47;;
72276;Laerm;61204;49.980;8.358;2023-02-01T05:30:25;58.40;53.32;71.23;;
72276;Laerm;61204;49.980;8.358;2023-02-01T05:32:53;58.31;52.62;69.31;;
72276;Laerm;61204;49.980;8.358;2023-02-01T05:35:19;59.48;53.84;71.24;;
72276;Laerm;61204;49.980;8.358;2023-02-01T05:37:45;59.04;54.97;69.97;;
72276;Laerm;61204;49.980;8.358;2023-02-01T05:40:11;58.57;54.38;67.65;;
72276;Laerm;61204;49.980;8.358;2023-02-01T05:42:36;58.18;54.28;65.06;;
72276;Laerm;61204;49.980;8.358;2023-02-01T05:45:02;56.91;52.16;67.40;;
72276;Laerm;61204;49.980;8.358;2023-02-01T05:47:30;57.63;53.48;65.42;;
72276;Laerm;61204;49.980;8.358;2023-02-01T05:49:56;58.34;53.53;70.24;;
72276;Laerm;61204;49.980;8.358;2023-02-01T05:52:22;58.12;53.68;66.90;;
72276;Laerm;61204;49.980;8.358;2023-02-01T05:54:48;58.22;53.21;67.82;;
72276;Laerm;61204;49.980;8.358;2023-02-01T05:57:14;59.06;55.45;67.03;;
72276;Laerm;61204;49.980;8.358;2023-02-01T05:59:39;58.23;54.11;64.96;;
72276;Laerm;61204;49.980;8.358;2023-02-01T06:02:11;57.08;53.00;63.07;;
72276;Laerm;61204;49.980;8.358;2023-02-01T06:04:37;58.38;53.85;66.33;;
72276;Laerm;61204;49.980;8.358;2023-02-01T06:07:02;58.29;53.19;71.33;;
72276;Laerm;61204;49.980;8.358;2023-02-01T06:09:28;57.37;53.13;67.19;;
72276;Laerm;61204;49.980;8.358;2023-02-01T06:11:54;57.04;53.27;64.60;;
72276;Laerm;61204;49.980;8.358;2023-02-01T06:14:20;57.62;53.25;62.85;;
72276;Laerm;61204;49.980;8.358;2023-02-01T06:16:48;57.64;53.67;63.82;;
72276;Laerm;61204;49.980;8.358;2023-02-01T06:19:13;57.16;53.32;63.65;;
72276;Laerm;61204;49.980;8.358;2023-02-01T06:21:39;57.56;54.32;64.86;;
72276;Laerm;61204;49.980;8.358;2023-02-01T06:24:04;57.54;53.26;67.66;;
72276;Laerm;61204;49.980;8.358;2023-02-01T06:26:31;57.41;53.19;65.11;;
72276;Laerm;61204;49.980;8.358;2023-02-01T06:28:59;58.46;54.20;71.65;;
72276;Laerm;61204;49.980;8.358;2023-02-01T06:31:25;56.65;53.18;64.33;;
72276;Laerm;61204;49.980;8.358;2023-02-01T06:33:51;57.60;53.30;63.63;;
72276;Laerm;61204;49.980;8.358;2023-02-01T06:36:17;56.37;51.69;66.33;;
72276;Laerm;61204;49.980;8.358;2023-02-01T06:38:44;57.28;52.66;69.31;;
72276;Laerm;61204;49.980;8.358;2023-02-01T06:41:12;56.79;52.30;67.69;;
72276;Laerm;61204;49.980;8.358;2023-02-01T06:43:37;56.82;52.10;65.57;;
72276;Laerm;61204;49.980;8.358;2023-02-01T06:46:07;57.00;52.58;67.09;;
72276;Laerm;61204;49.980;8.358;2023-02-01T06:48:33;55.75;51.79;65.37;;
72276;Laerm;61204;49.980;8.358;2023-02-01T06:51:01;56.60;52.42;67.77;;
72276;Laerm;61204;49.980;8.358;2023-02-01T06:53:27;55.71;50.81;67.87;;
72276;Laerm;61204;49.980;8.358;2023-02-01T06:55:58;56.98;51.62;72.69;;
72276;Laerm;61204;49.980;8.358;2023-02-01T06:58:32;58.31;52.66;68.94;;
72276;Laerm;61204;49.980;8.358;2023-02-01T07:00:58;58.51;53.65;71.87;;
72276;Laerm;61204;49.980;8.358;2023-02-01T07:03:24;57.22;52.02;67.77;;
72276;Laerm;61204;49.980;8.358;2023-02-01T07:05:49;57.49;52.69;69.12;;
72276;Laerm;61204;49.980;8.358;2023-02-01T07:08:15;60.33;52.43;76.04;;
72276;Laerm;61204;49.980;8.358;2023-02-01T07:10:43;61.20;53.37;81.16;;
72276;Laerm;61204;49.980;8.358;2023-02-01T07:13:08;58.42;52.90;69.05;;
72276;Laerm;61204;49.980;8.358;2023-02-01T07:15:34;57.64;52.48;78.14;;
72276;Laerm;61204;49.980;8.358;2023-02-01T07:17:59;59.84;53.93;72.43;;
72276;Laerm;61204;49.980;8.358;2023-02-01T07:20:25;58.94;54.51;70.00;;
72276;Laerm;61204;49.980;8.358;2023-02-01T07:22:55;56.97;52.54;72.08;;
72276;Laerm;61204;49.980;8.358;2023-02-01T07:25:22;57.44;51.89;70.80;;
72276;Laerm;61204;49.980;8.358;2023-02-01T07:27:47;57.25;53.12;70.29;;
72276;Laerm;61204;49.980;8.358;2023-02-01T07:30:13;58.08;53.08;74.83;;
72276;Laerm;61204;49.980;8.358;2023-02-01T07:32:38;57.44;52.51;72.55;;
72276;Laerm;61204;49.980;8.358;2023-02-01T07:35:04;56.78;52.20;68.71;;
72276;Laerm;61204;49.980;8.358;2023-02-01T07:37:32;57.94;52.69;68.59;;
72276;Laerm;61204;49.980;8.358;2023-02-01T07:39:58;57.05;52.01;67.99;;
72276;Laerm;61204;49.980;8.358;2023-02-01T07:42:23;58.10;52.44;73.82;;
72276;Laerm;61204;49.980;8.358;2023-02-01T07:44:51;57.74;52.06;69.93;;
72276;Laerm;61204;49.980;8.358;2023-02-01T07:47:16;57.21;53.06;68.30;;
72276;Laerm;61204;49.980;8.358;2023-02-01T07:49:42;56.92;52.21;70.80;;
72276;Laerm;61204;49.980;8.358;2023-02-01T07:52:07;55.71;52.19;68.29;;
72276;Laerm;61204;49.980;8.358;2023-02-01T07:54:33;57.63;51.62;65.43;;
72276;Laerm;61204;49.980;8.358;2023-02-01T07:56:58;55.85;51.60;67.76;;
72276;Laerm;61204;49.980;8.358;2023-02-01T07:59:24;56.41;52.61;64.11;;
72276;Laerm;61204;49.980;8.358;2023-02-01T08:01:49;59.28;52.43;72.18;;
72276;Laerm;61204;49.980;8.358;2023-02-01T08:04:15;56.00;50.75;68.26;;
72276;Laerm;61204;49.980;8.358;2023-02-01T08:06:40;57.17;52.37;72.52;;
72276;Laerm;61204;49.980;8.358;2023-02-01T08:09:07;55.84;50.89;68.40;;
72276;Laerm;61204;49.980;8.358;2023-02-01T08:11:37;56.85;51.91;70.55;;
72276;Laerm;61204;49.980;8.358;2023-02-01T08:14:04;60.08;51.33;76.02;;
72276;Laerm;61204;49.980;8.358;2023-02-01T08:16:31;61.19;52.78;76.21;;
72276;Laerm;61204;49.980;8.358;2023-02-01T08:18:56;58.55;51.74;74.74;;
72276;Laerm;61204;49.980;8.358;2023-02-01T08:21:26;56.78;52.04;70.68;;
72276;Laerm;61204;49.980;8.358;2023-02-01T08:23:53;56.20;52.15;65.80;;
72276;Laerm;61204;49.980;8.358;2023-02-01T08:26:22;57.53;52.08;72.97;;
72276;Laerm;61204;49.980;8.358;2023-02-01T08:28:56;57.34;53.61;65.57;;
72276;Laerm;61204;49.980;8.358;2023-02-01T08:31:24;59.59;52.80;74.98;;
72276;Laerm;61204;49.980;8.358;2023-02-01T08:33:55;57.26;53.18;66.69;;
72276;Laerm;61204;49.980;8.358;2023-02-01T08:36:22;58.03;53.23;72.71;;
72276;Laerm;61204;49.980;8.358;2023-02-01T08:38:49;58.75;52.62;72.77;;
72276;Laerm;61204;49.980;8.358;2023-02-01T08:41:20;60.13;51.21;77.37;;
72276;Laerm;61204;49.980;8.358;2023-02-01T08:43:46;56.98;51.15;70.99;;
72276;Laerm;61204;49.980;8.358;2023-02-01T08:46:13;55.98;51.61;67.67;;
72276;Laerm;61204;49.980;8.358;2023-02-01T08:48:39;55.32;50.93;66.43;;
72276;Laerm;61204;49.980;8.358;2023-02-01T08:51:11;56.12;50.60;71.13;;
72276;Laerm;61204;49.980;8.358;2023-02-01T08:53:39;59.78;51.65;78.93;;
72276;Laerm;61204;49.980;8.358;2023-02-01T08:56:06;59.70;51.86;76.75;;
72276;Laerm;61204;49.980;8.358;2023-02-01T08:58:32;63.20;50.73;85.34;;
72276;Laerm;61204;49.980;8.358;2023-02-01T09:01:05;59.75;51.37;76.57;;
72276;Laerm;61204;49.980;8.358;2023-02-01T09:03:31;55.41;50.40;66.19;;
72276;Laerm;61204;49.980;8.358;2023-02-01T09:06:04;58.24;50.88;78.27;;
72276;Laerm;61204;49.980;8.358;2023-02-01T09:08:30;57.44;50.32;74.75;;
72276;Laerm;61204;49.980;8.358;2023-02-01T09:11:10;59.37;50.62;75.56;;
72276;Laerm;61204;49.980;8.358;2023-02-01T09:13:36;59.41;50.63;81.65;;
72276;Laerm;61204;49.980;8.358;2023-02-01T09:16:02;55.92;50.24;73.98;;
72276;Laerm;61204;49.980;8.358;2023-02-01T09:18:28;59.31;51.64;76.02;;
72276;Laerm;61204;49.980;8.358;2023-02-01T09:20:54;61.25;50.68;78.44;;
72276;Laerm;61204;49.980;8.358;2023-02-01T09:23:19;55.66;48.67;65.48;;
72276;Laerm;61204;49.980;8.358;2023-02-01T09:25:47;57.55;50.86;73.49;;
72276;Laerm;61204;49.980;8.358;2023-02-01T09:28:16;57.49;50.54;74.73;;
72276;Laerm;61204;49.980;8.358;2023-02-01T09:30:41;55.66;50.13;70.81;;
72276;Laerm;61204;49.980;8.358;2023-02-01T09:33:07;54.35;49.28;62.09;;
72276;Laerm;61204;49.980;8.358;2023-02-01T09:35:32;54.87;49.61;63.36;;
72276;Laerm;61204;49.980;8.358;2023-02-01T09:37:57;56.26;51.23;70.05;;
72276;Laerm;61204;49.980;8.358;2023-02-01T09:40:23;59.49;50.40;75.10;;
72276;Laerm;61204;49.980;8.358;2023-02-01T09:47:58;58.24;51.00;75.85;;
72276;Laerm;61204;49.980;8.358;2023-02-01T09:50:39;58.90;50.89;82.83;;
72276;Laerm;61204;49.980;8.358;2023-02-01T09:53:15;56.11;50.75;70.49;;
72276;Laerm;61204;49.980;8.358;2023-02-01T09:55:50;57.27;51.13;74.78;;
72276;Laerm;61204;49.980;8.358;2023-02-01T10:01:02;57.76;49.89;78.12;;
72276;Laerm;61204;49.980;8.358;2023-02-01T10:03:35;64.32;50.35;83.72;;
72276;Laerm;61204;49.980;8.358;2023-02-01T10:09:24;56.15;50.92;69.08;;
72276;Laerm;61204;49.980;8.358;2023-02-01T10:12:29;56.39;50.78;67.10;;
72276;Laerm;61204;49.980;8.358;2023-02-01T10:15:14;57.61;50.62;73.11;;
72276;Laerm;61204;49.980;8.358;2023-02-01T10:29:45;58.36;51.88;73.84;;
72276;Laerm;61204;49.980;8.358;2023-02-01T10:32:20;56.85;49.83;74.49;;
72276;Laerm;61204;49.980;8.358;2023-02-01T10:34:55;59.02;51.67;82.61;;
72276;Laerm;61204;49.980;8.358;2023-02-01T10:37:34;59.57;50.90;75.25;;
72276;Laerm;61204;49.980;8.358;2023-02-01T10:42:44;58.89;53.16;75.93;;
72276;Laerm;61204;49.980;8.358;2023-02-01T10:45:23;58.14;51.97;72.03;;
72276;Laerm;61204;49.980;8.358;2023-02-01T10:47:52;58.79;51.81;76.56;;
72276;Laerm;61204;49.980;8.358;2023-02-01T10:53:17;57.68;50.99;75.16;;
72276;Laerm;61204;49.980;8.358;2023-02-01T10:55:47;58.93;53.55;74.92;;
72276;Laerm;61204;49.980;8.358;2023-02-01T10:58:18;59.58;53.27;78.80;;
72276;Laerm;61204;49.980;8.358;2023-02-01T11:00:59;62.51;53.74;69.40;;
72276;Laerm;61204;49.980;8.358;2023-02-01T11:08:56;69.39;63.22;77.54;;
72276;Laerm;61204;49.980;8.358;2023-02-01T11:11:23;60.38;52.88;76.49;;
72276;Laerm;61204;49.980;8.358;2023-02-01T11:14:14;57.42;51.42;70.75;;
72276;Laerm;61204;49.980;8.358;2023-02-01T11:16:40;56.55;51.03;70.67;;
72276;Laerm;61204;49.980;8.358;2023-02-01T11:19:06;56.54;51.84;66.38;;
72276;Laerm;61204;49.980;8.358;2023-02-01T11:21:35;57.42;52.24;69.74;;
72276;Laerm;61204;49.980;8.358;2023-02-01T11:24:22;57.31;50.29;72.56;;
72276;Laerm;61204;49.980;8.358;2023-02-01T11:26:49;61.50;50.73;80.21;;
72276;Laerm;61204;49.980;8.358;2023-02-01T11:29:18;62.05;50.44;88.53;;
72276;Laerm;61204;49.980;8.358;2023-02-01T11:31:57;62.12;51.01;83.21;;
72276;Laerm;61204;49.980;8.358;2023-02-01T11:34:30;58.86;52.56;75.89;;
72276;Laerm;61204;49.980;8.358;2023-02-01T11:37:01;57.21;50.89;69.08;;
72276;Laerm;61204;49.980;8.358;2023-02-01T11:39:33;60.63;52.46;80.07;;
72276;Laerm;61204;49.980;8.358;2023-02-01T11:42:16;62.73;50.65;86.04;;
72276;Laerm;61204;49.980;8.358;2023-02-01T11:44:45;59.01;51.21;75.58;;
72276;Laerm;61204;49.980;8.358;2023-02-01T11:47:27;61.62;52.77;79.07;;
72276;Laerm;61204;49.980;8.358;2023-02-01T11:49:57;61.74;52.19;79.66;;
72276;Laerm;61204;49.980;8.358;2023-02-01T11:58:56;62.52;50.99;80.40;;
72276;Laerm;61204;49.980;8.358;2023-02-01T12:06:56;61.04;52.54;82.11;;
72276;Laerm;61204;49.980;8.358;2023-02-01T12:10:02;60.18;53.32;79.81;;
72276;Laerm;61204;49.980;8.358;2023-02-01T12:12:43;57.91;51.95;75.83;;
72276;Laerm;61204;49.980;8.358;2023-02-01T12:18:35;63.44;51.41;82.57;;
72276;Laerm;61204;49.980;8.358;2023-02-01T12:24:42;60.84;52.62;79.63;;
72276;Laerm;61204;49.980;8.358;2023-02-01T12:41:25;63.37;51.66;84.34;;
72276;Laerm;61204;49.980;8.358;2023-02-01T12:46:35;57.83;51.50;73.05;;
72276;Laerm;61204;49.980;8.358;2023-02-01T12:49:17;61.19;52.70;79.45;;
72276;Laerm;61204;49.980;8.358;2023-02-01T12:51:49;59.50;52.83;74.89;;
72276;Laerm;61204;49.980;8.358;2023-02-01T12:57:00;58.95;51.67;76.71;;
72276;Laerm;61204;49.980;8.358;2023-02-01T12:59:49;58.48;50.26;73.99;;
72276;Laerm;61204;49.980;8.358;2023-02-01T13:02:27;58.60;51.11;77.93;;
72276;Laerm;61204;49.980;8.358;2023-02-01T13:05:22;59.54;51.98;79.64;;
72276;Laerm;61204;49.980;8.358;2023-02-01T13:08:01;58.42;53.35;73.26;;
72276;Laerm;61204;49.980;8.358;2023-02-01T13:10:51;64.35;52.42;85.88;;
72276;Laerm;61204;49.980;8.358;2023-02-01T13:13:45;57.67;52.50;71.00;;
72276;Laerm;61204;49.980;8.358;2023-02-01T13:16:27;64.41;52.28;82.66;;
72276;Laerm;61204;49.980;8.358;2023-02-01T13:21:42;59.68;51.59;75.66;;
72276;Laerm;61204;49.980;8.358;2023-02-01T13:24:39;60.73;52.68;78.60;;
72276;Laerm;61204;49.980;8.358;2023-02-01T13:27:12;61.58;52.38;84.86;;
72276;Laerm;61204;49.980;8.358;2023-02-01T13:29:52;60.00;52.40;84.22;;
72276;Laerm;61204;49.980;8.358;2023-02-01T13:41:23;58.55;50.43;82.01;;
72276;Laerm;61204;49.980;8.358;2023-02-01T13:43:58;63.90;50.72;81.02;;
72276;Laerm;61204;49.980;8.358;2023-02-01T13:46:25;60.74;51.60;80.17;;
72276;Laerm;61204;49.980;8.358;2023-02-01T13:48:55;62.69;50.02;84.00;;
72276;Laerm;61204;49.980;8.358;2023-02-01T13:51:44;60.96;51.62;78.33;;
72276;Laerm;61204;49.980;8.358;2023-02-01T13:54:36;60.15;52.98;77.79;;
72276;Laerm;61204;49.980;8.358;2023-02-01T13:57:05;67.09;51.79;89.23;;
72276;Laerm;61204;49.980;8.358;2023-02-01T14:05:02;58.92;52.95;76.46;;
72276;Laerm;61204;49.980;8.358;2023-02-01T14:07:28;61.35;50.78;78.68;;
72276;Laerm;61204;49.980;8.358;2023-02-01T14:09:54;61.13;51.71;81.63;;
72276;Laerm;61204;49.980;8.358;2023-02-01T14:12:44;60.83;52.08;78.94;;
72276;Laerm;61204;49.980;8.358;2023-02-01T14:15:25;61.10;51.60;84.95;;
72276;Laerm;61204;49.980;8.358;2023-02-01T14:17:52;60.38;52.51;79.55;;
72276;Laerm;61204;49.980;8.358;2023-02-01T14:23:14;63.55;53.10;81.19;;
72276;Laerm;61204;49.980;8.358;2023-02-01T14:25:41;58.49;51.97;71.93;;
72276;Laerm;61204;49.980;8.358;2023-02-01T14:28:25;58.91;51.74;76.95;;
72276;Laerm;61204;49.980;8.358;2023-02-01T14:30:54;62.18;53.96;81.45;;
72276;Laerm;61204;49.980;8.358;2023-02-01T14:33:24;60.76;52.68;77.98;;
72276;Laerm;61204;49.980;8.358;2023-02-01T14:36:10;60.46;51.38;77.46;;
72276;Laerm;61204;49.980;8.358;2023-02-01T14:38:38;60.05;52.90;77.23;;
72276;Laerm;61204;49.980;8.358;2023-02-01T14:41:34;61.57;51.68;82.47;;
72276;Laerm;61204;49.980;8.358;2023-02-01T14:52:42;60.04;52.65;80.30;;
72276;Laerm;61204;49.980;8.358;2023-02-01T14:55:20;66.15;52.16;86.56;;
72276;Laerm;61204;49.980;8.358;2023-02-01T14:57:49;59.21;52.37;78.59;;
72276;Laerm;61204;49.980;8.358;2023-02-01T15:00:25;61.31;53.37;80.16;;
72276;Laerm;61204;49.980;8.358;2023-02-01T15:02:53;58.46;52.52;75.98;;
72276;Laerm;61204;49.980;8.358;2023-02-01T15:05:32;58.93;51.70;75.34;;
72276;Laerm;61204;49.980;8.358;2023-02-01T15:08:28;61.35;52.67;79.99;;
72276;Laerm;61204;49.980;8.358;2023-02-01T15:10:54;58.74;52.63;76.49;;
72276;Laerm;61204;49.980;8.358;2023-02-01T15:13:23;59.65;51.76;78.46;;
72276;Laerm;61204;49.980;8.358;2023-02-01T15:18:35;61.25;52.04;77.31;;
72276;Laerm;61204;49.980;8.358;2023-02-01T15:21:02;58.47;52.26;74.18;;
72276;Laerm;61204;49.980;8.358;2023-02-01T15:23:29;57.98;52.48;77.72;;
72276;Laerm;61204;49.980;8.358;2023-02-01T15:25:55;57.54;52.41;73.76;;
72276;Laerm;61204;49.980;8.358;2023-02-01T15:28:21;58.39;51.97;70.93;;
72276;Laerm;61204;49.980;8.358;2023-02-01T15:31:00;56.69;52.25;65.93;;
72276;Laerm;61204;49.980;8.358;2023-02-01T15:33:28;57.73;51.17;74.16;;
72276;Laerm;61204;49.980;8.358;2023-02-01T15:36:18;61.16;52.70;77.72;;
72276;Laerm;61204;49.980;8.358;2023-02-01T15:38:44;57.53;52.23;76.97;;
72276;Laerm;61204;49.980;8.358;2023-02-01T15:41:29;58.84;50.89;76.52;;
72276;Laerm;61204;49.980;8.358;2023-02-01T15:48:58;56.80;52.39;71.02;;
72276;Laerm;61204;49.980;8.358;2023-02-01T15:51:29;57.19;52.43;67.31;;
72276;Laerm;61204;49.980;8.358;2023-02-01T15:54:07;62.16;51.08;79.27;;
72276;Laerm;61204;49.980;8.358;2023-02-01T15:56:41;56.96;51.47;77.75;;
72276;Laerm;61204;49.980;8.358;2023-02-01T15:59:17;60.84;51.66;79.23;;
72276;Laerm;61204;49.980;8.358;2023-02-01T16:01:44;56.68;50.95;70.75;;
72276;Laerm;61204;49.980;8.358;2023-02-01T16:04:27;56.47;51.30;70.22;;
72276;Laerm;61204;49.980;8.358;2023-02-01T16:07:03;57.71;52.77;72.49;;
72276;Laerm;61204;49.980;8.358;2023-02-01T16:09:40;61.07;50.82;76.72;;
72276;Laerm;61204;49.980;8.358;2023-02-01T16:15:06;59.10;50.72;79.90;;
72276;Laerm;61204;49.980;8.358;2023-02-01T16:17:32;57.65;51.20;76.04;;
72276;Laerm;61204;49.980;8.358;2023-02-01T16:19:57;58.98;52.05;77.35;;
72276;Laerm;61204;49.980;8.358;2023-02-01T16:22:23;57.59;51.09;75.29;;
72276;Laerm;61204;49.980;8.358;2023-02-01T16:24:49;56.29;51.18;73.26;;
72276;Laerm;61204;49.980;8.358;2023-02-01T16:27:17;56.70;51.01;69.68;;